Airfield :







YOU CAN JOIN US ON...

 
LOGIN :

Register | Disclaimer

   EN    FR    IT 

 









Legend :    VFR   Marginal VFR   IFR   Intensive IFR   Very Intensive IFR
Visi :
Ceiling :
>= 8 km
>= 3000ft
5 to 8 km
1000 to 3000 ft
1500m to 5 km
500 to 1000 ft
800 to 1500m
200 to 500 ft
< 800m
< 200 ft
Symbols :   Thunderstorms  Fog  Heavy snow  Heavy precipitations  Wind > 20 kt






- Airport Elevation : 496 ft
- IATA code : YQX


CYQX - Gander

CURRENT METAR :
  • 121100Z 22012KT 20SM BKN013 21/18 A3010 RMK SC7 SLP193 DENSITY ALT 1100FT

EXPIRED METARs :
  • 121000Z 22011G17KT 200V290 20SM OVC013 20/18 A3010 RMK SC8 SLP192 DENSITY ALT 1100FT
  • 120900Z 22010G15KT 200V270 20SM BKN012 BKN110 20/18 A3008 RMK SC7AC1 AC TR SLP188 DENSITY ALT 1000FT
  • 120832Z 21008KT 190V260 15SM BKN013 BKN110 20/17 A3007 RMK SC7AC1 AC TR SLP184 DENSITY ALT 1100FT

TAF AMD TAF CYQX
Valid from the 12 at 06:00 until the 13 at 06:00 UTC


120640Z 1206/1306 21012G22KT P6SM BKN120
TEMPO 1206/1212 BKN012
BECMG 1210/1212 22015G25KT
FM121600 22018G28KT P6SM SCT040 RMK NXT FCST WILL BE ISSUED AT 121145Z
CZQX FIR / North America



MET'MAP, your aeronautical weather chart ! - Copyright ORBIFLY December 2007 - Disclaimer

ORBIFLY MET'MAP TEAM :

Programming & Development : Alexandra Zaïnal
Concept & original design : Baudouin d'Aumeries
Assistance for programming : Marc-Olivier Méhu
Technical & hardware support : Manuel Goepfert

Contact : metmap@orbifly.com




SOURCES & CREDITS :

   NOAA